Time,TemperatureF,DewpointF,PressureIn,WindDirection,WindDirectionDegrees,WindSpeedMPH,WindSpeedGustMPH,Humidity,HourlyPrecipIn,Conditions,Clouds,dailyrainin,SoftwareType,DateUTC
2013-09-02 00:08:00,69.3,68.0,29.76,NW,308,0.0,-999.0,96,-99.99,,,0.23,weatherlink.com 1.10,2013-09-02 04:08:00,
2013-09-02 00:23:00,69.3,68.0,29.76,NW,309,0.0,-999.0,96,-99.99,,,0.23,weatherlink.com 1.10,2013-09-02 04:23:00,
2013-09-02 00:38:00,69.4,68.0,29.76,NW,308,0.0,-999.0,96,-99.99,,,0.23,weatherlink.com 1.10,2013-09-02 04:38:00,
2013-09-02 00:53:00,69.3,69.0,29.76,NW,309,0.0,-999.0,97,-99.99,,,0.23,weatherlink.com 1.10,2013-09-02 04:53:00,
2013-09-02 01:08:00,69.2,68.0,29.75,NW,308,0.0,-999.0,97,-99.99,,,0.23,weatherlink.com 1.10,2013-09-02 05:08:00,
2013-09-02 01:23:00,69.2,68.0,29.75,NW,308,0.0,-999.0,97,-99.99,,,0.23,weatherlink.com 1.10,2013-09-02 05:23:00,
2013-09-02 01:38:00,69.3,69.0,29.75,NW,309,0.0,-999.0,97,-99.99,,,0.23,weatherlink.com 1.10,2013-09-02 05:38:00,
2013-09-02 01:53:00,69.4,69.0,29.74,NW,309,0.0,-999.0,97,-99.99,,,0.23,weatherlink.com 1.10,2013-09-02 05:53:00,
2013-09-02 02:08:00,69.4,69.0,29.73,NW,308,0.0,-999.0,97,-99.99,,,0.23,weatherlink.com 1.10,2013-09-02 06:08:00,
2013-09-02 02:23:00,69.5,69.0,29.73,NW,308,0.0,-999.0,97,-99.99,,,0.23,weatherlink.com 1.10,2013-09-02 06:23:00,
2013-09-02 02:38:00,69.5,69.0,29.73,NW,308,0.0,-999.0,97,-99.99,,,0.23,weatherlink.com 1.10,2013-09-02 06:38:00,
2013-09-02 02:53:00,69.5,69.0,29.74,NW,309,0.0,-999.0,97,-99.99,,,0.23,weatherlink.com 1.10,2013-09-02 06:53:00,
2013-09-02 03:08:00,69.5,69.0,29.73,NW,308,0.0,-999.0,97,-99.99,,,0.23,weatherlink.com 1.10,2013-09-02 07:08:00,
2013-09-02 03:23:00,69.5,69.0,29.73,NW,309,0.0,-999.0,97,-99.99,,,0.23,weatherlink.com 1.10,2013-09-02 07:23:00,
2013-09-02 03:38:00,69.5,69.0,29.73,NW,309,0.0,-999.0,97,-99.99,,,0.23,weatherlink.com 1.10,2013-09-02 07:38:00,
2013-09-02 03:53:00,69.4,69.0,29.72,NW,308,0.0,-999.0,97,-99.99,,,0.23,weatherlink.com 1.10,2013-09-02 07:53:00,
2013-09-02 04:08:00,69.2,68.0,29.72,NW,308,0.0,-999.0,97,-99.99,,,0.00,weatherlink.com 1.10,2013-09-02 08:08:00,
2013-09-02 04:23:00,68.9,68.0,29.72,NW,309,0.0,-999.0,97,-99.99,,,0.00,weatherlink.com 1.10,2013-09-02 08:23:00,
2013-09-02 04:38:00,68.7,68.0,29.73,NW,308,0.0,-999.0,97,-99.99,,,0.00,weatherlink.com 1.10,2013-09-02 08:38:00,
2013-09-02 04:53:00,68.5,68.0,29.72,NW,309,0.0,-999.0,97,-99.99,,,0.00,weatherlink.com 1.10,2013-09-02 08:53:00,
2013-09-02 05:08:00,68.2,67.0,29.72,NW,308,0.0,-999.0,97,-99.99,,,0.00,weatherlink.com 1.10,2013-09-02 09:08:00,
2013-09-02 05:23:00,67.9,67.0,29.72,NW,308,0.0,-999.0,97,-99.99,,,0.00,weatherlink.com 1.10,2013-09-02 09:23:00,
2013-09-02 05:38:00,67.8,67.0,29.72,NW,308,0.0,-999.0,97,-99.99,,,0.00,weatherlink.com 1.10,2013-09-02 09:38:00,
2013-09-02 05:53:00,67.7,67.0,29.72,NW,308,0.0,-999.0,97,-99.99,,,0.00,weatherlink.com 1.10,2013-09-02 09:53:00,
2013-09-02 06:08:00,67.6,67.0,29.72,NW,309,0.0,-999.0,97,-99.99,,,0.00,weatherlink.com 1.10,2013-09-02 10:08:00,
2013-09-02 06:23:00,67.3,67.0,29.72,NW,309,0.0,-999.0,97,-99.99,,,0.00,weatherlink.com 1.10,2013-09-02 10:23:00,
2013-09-02 06:38:00,67.2,66.0,29.72,NW,309,0.0,-999.0,97,-99.99,,,0.00,weatherlink.com 1.10,2013-09-02 10:38:00,
2013-09-02 06:53:00,67.2,67.0,29.73,NW,308,0.0,-999.0,98,-99.99,,,0.00,weatherlink.com 1.10,2013-09-02 10:53:00,
2013-09-02 07:08:00,67.3,67.0,29.72,NW,308,0.0,-999.0,98,-99.99,,,0.00,weatherlink.com 1.10,2013-09-02 11:08:00,
2013-09-02 07:23:00,67.4,67.0,29.73,NW,308,0.0,-999.0,97,-99.99,,,0.00,weatherlink.com 1.10,2013-09-02 11:23:00,
2013-09-02 07:38:00,67.4,67.0,29.73,NW,308,0.0,-999.0,98,-99.99,,,0.00,weatherlink.com 1.10,2013-09-02 11:38:00,
2013-09-02 07:53:00,67.5,67.0,29.72,NW,309,0.0,-999.0,98,-99.99,,,0.00,weatherlink.com 1.10,2013-09-02 11:53:00,
2013-09-02 08:08:00,67.9,67.0,29.72,NW,309,0.0,-999.0,98,-99.99,,,0.00,weatherlink.com 1.10,2013-09-02 12:08:00,
2013-09-02 08:23:00,68.5,68.0,29.72,NW,308,0.0,-999.0,98,-99.99,,,0.00,weatherlink.com 1.10,2013-09-02 12:23:00,
2013-09-02 08:38:00,69.3,69.0,29.71,NW,309,0.0,-999.0,98,-99.99,,,0.00,weatherlink.com 1.10,2013-09-02 12:38:00,
2013-09-02 08:53:00,70.6,70.0,29.71,NW,309,0.0,-999.0,98,-99.99,,,0.00,weatherlink.com 1.10,2013-09-02 12:53:00,
2013-09-02 09:08:00,71.9,71.0,29.71,NW,309,1.0,-999.0,97,-99.99,,,0.00,weatherlink.com 1.10,2013-09-02 13:08:00,
2013-09-02 09:23:00,73.4,72.0,29.72,NW,308,0.0,-999.0,95,-99.99,,,0.00,weatherlink.com 1.10,2013-09-02 13:23:00,
2013-09-02 09:38:00,75.1,72.0,29.72,NW,308,0.0,-999.0,91,-99.99,,,0.00,weatherlink.com 1.10,2013-09-02 13:38:00,
2013-09-02 09:53:00,76.7,73.0,29.72,NE,40,3.0,-999.0,87,-99.99,,,0.00,weatherlink.com 1.10,2013-09-02 13:53:00,
2013-09-02 10:08:00,77.2,72.0,29.72,NE,55,0.0,-999.0,85,-99.99,,,0.00,weatherlink.com 1.10,2013-09-02 14:08:00,
2013-09-02 10:24:00,77.0,73.0,29.72,South,173,0.0,-999.0,86,-99.99,,,0.00,weatherlink.com 1.10,2013-09-02 14:24:00,
2013-09-02 10:39:00,77.2,72.0,29.72,SSW,205,0.0,-999.0,84,-99.99,,,0.00,weatherlink.com 1.10,2013-09-02 14:39:00,
2013-09-02 10:54:00,77.6,72.0,29.72,SW,229,0.0,-999.0,82,-99.99,,,0.00,weatherlink.com 1.10,2013-09-02 14:54:00,
2013-09-02 11:09:00,78.3,72.0,29.71,SW,229,0.0,-999.0,82,-99.99,,,0.00,weatherlink.com 1.10,2013-09-02 15:09:00,
2013-09-02 11:24:00,78.8,73.0,29.70,SW,229,2.0,-999.0,81,-99.99,,,0.00,weatherlink.com 1.10,2013-09-02 15:24:00,
2013-09-02 11:39:00,80.6,73.0,29.71,South,179,4.0,-999.0,77,-99.99,,,0.00,weatherlink.com 1.10,2013-09-02 15:39:00,
2013-09-02 11:54:00,80.2,72.0,29.71,South,181,2.0,-999.0,77,-99.99,,,0.00,weatherlink.com 1.10,2013-09-02 15:54:00,
2013-09-02 12:09:00,80.5,73.0,29.69,SW,227,1.0,-999.0,77,-99.99,,,0.00,weatherlink.com 1.10,2013-09-02 16:09:00,
2013-09-02 12:24:00,82.4,73.0,29.69,SSE,168,0.0,-999.0,73,-99.99,,,0.00,weatherlink.com 1.10,2013-09-02 16:24:00,
2013-09-02 12:39:00,83.4,73.0,29.69,SSE,153,1.0,-999.0,70,-99.99,,,0.01,weatherlink.com 1.10,2013-09-02 16:39:00,
2013-09-02 12:54:00,83.6,72.0,29.69,SSE,148,0.0,-999.0,69,-99.99,,,0.01,weatherlink.com 1.10,2013-09-02 16:54:00,
2013-09-02 13:09:00,83.5,72.0,29.68,South,188,4.0,-999.0,68,-99.99,,,0.01,weatherlink.com 1.10,2013-09-02 17:09:00,
2013-09-02 13:24:00,84.4,72.0,29.67,SSE,149,2.0,-999.0,67,-99.99,,,0.01,weatherlink.com 1.10,2013-09-02 17:24:00,
2013-09-02 13:39:00,84.5,73.0,29.66,South,173,0.0,-999.0,68,-99.99,,,0.01,weatherlink.com 1.10,2013-09-02 17:39:00,
2013-09-02 13:54:00,83.6,73.0,29.68,South,180,0.0,-999.0,70,-99.99,,,0.01,weatherlink.com 1.10,2013-09-02 17:54:00,
2013-09-02 14:09:00,81.6,72.0,29.67,SW,219,1.0,-999.0,72,-99.99,,,0.01,weatherlink.com 1.10,2013-09-02 18:09:00,
2013-09-02 14:24:00,80.7,72.0,29.67,SW,215,0.0,-999.0,74,-99.99,,,0.01,weatherlink.com 1.10,2013-09-02 18:24:00,
2013-09-02 14:39:00,80.8,73.0,29.67,South,182,0.0,-999.0,77,-99.99,,,0.01,weatherlink.com 1.10,2013-09-02 18:39:00,
2013-09-02 14:54:00,80.5,72.0,29.66,SW,223,1.0,-999.0,74,-99.99,,,0.01,weatherlink.com 1.10,2013-09-02 18:54:00,
2013-09-02 15:09:00,81.6,71.0,29.65,WSW,248,5.0,-999.0,71,-99.99,,,0.01,weatherlink.com 1.10,2013-09-02 19:09:00,
2013-09-02 15:24:00,82.3,71.0,29.66,WSW,254,13.0,-999.0,69,-99.99,,,0.01,weatherlink.com 1.10,2013-09-02 19:24:00,
2013-09-02 15:39:00,81.4,71.0,29.66,SW,215,0.0,-999.0,70,-99.99,,,0.01,weatherlink.com 1.10,2013-09-02 19:39:00,
2013-09-02 15:54:00,81.0,71.0,29.65,SW,229,1.0,-999.0,71,-99.99,,,0.01,weatherlink.com 1.10,2013-09-02 19:54:00,
2013-09-02 16:09:00,80.7,71.0,29.66,West,261,0.0,-999.0,71,-99.99,,,0.01,weatherlink.com 1.10,2013-09-02 20:09:00,
2013-09-02 16:24:00,81.2,70.0,29.66,SSE,161,1.0,-999.0,68,-99.99,,,0.01,weatherlink.com 1.10,2013-09-02 20:24:00,
2013-09-02 16:39:00,81.5,67.0,29.66,SW,229,5.0,-999.0,62,-99.99,,,0.01,weatherlink.com 1.10,2013-09-02 20:39:00,
2013-09-02 16:54:00,80.6,67.0,29.66,SSW,210,1.0,-999.0,63,-99.99,,,0.01,weatherlink.com 1.10,2013-09-02 20:54:00,
2013-09-02 17:09:00,78.8,67.0,29.68,WSW,238,0.0,-999.0,68,-99.99,,,0.01,weatherlink.com 1.10,2013-09-02 21:09:00,
2013-09-02 17:24:00,76.5,68.0,29.69,West,259,7.0,-999.0,76,-99.99,,,0.01,weatherlink.com 1.10,2013-09-02 21:24:00,
2013-09-02 17:39:00,74.8,68.0,29.69,SW,227,7.0,-999.0,80,-99.99,,,0.01,weatherlink.com 1.10,2013-09-02 21:39:00,
2013-09-02 17:54:00,74.2,68.0,29.69,WSW,242,8.0,-999.0,81,-99.99,,,0.01,weatherlink.com 1.10,2013-09-02 21:54:00,
2013-09-02 18:09:00,74.3,68.0,29.69,SW,216,2.0,-999.0,80,-99.99,,,0.01,weatherlink.com 1.10,2013-09-02 22:09:00,
2013-09-02 18:24:00,73.8,68.0,29.69,WSW,257,8.0,-999.0,81,-99.99,,,0.01,weatherlink.com 1.10,2013-09-02 22:24:00,
2013-09-02 18:39:00,73.1,67.0,29.70,West,259,3.0,-999.0,82,-99.99,,,0.01,weatherlink.com 1.10,2013-09-02 22:39:00,
2013-09-02 18:54:00,72.7,67.0,29.70,SW,224,5.0,-999.0,83,-99.99,,,0.01,weatherlink.com 1.10,2013-09-02 22:54:00,
2013-09-02 19:09:00,72.3,67.0,29.70,West,275,0.0,-999.0,83,-99.99,,,0.01,weatherlink.com 1.10,2013-09-02 23:09:00,
2013-09-02 19:24:00,71.8,66.0,29.71,West,260,6.0,-999.0,82,-99.99,,,0.01,weatherlink.com 1.10,2013-09-02 23:24:00,
2013-09-02 19:39:00,71.6,66.0,29.70,SSW,205,1.0,-999.0,81,-99.99,,,0.01,weatherlink.com 1.10,2013-09-02 23:39:00,
2013-09-02 19:54:00,71.2,65.0,29.71,WSW,257,3.0,-999.0,81,-99.99,,,0.01,weatherlink.com 1.10,2013-09-02 23:54:00,
2013-09-02 20:09:00,70.6,65.0,29.71,SSW,209,1.0,-999.0,82,-99.99,,,0.01,weatherlink.com 1.10,2013-09-03 00:09:00,
2013-09-02 20:24:00,70.1,64.0,29.71,SW,234,0.0,-999.0,80,-99.99,,,0.01,weatherlink.com 1.10,2013-09-03 00:24:00,
2013-09-02 20:39:00,69.6,62.0,29.71,WSW,250,4.0,-999.0,76,-99.99,,,0.01,weatherlink.com 1.10,2013-09-03 00:39:00,
2013-09-02 20:54:00,69.1,61.0,29.73,WSW,257,0.0,-999.0,76,-99.99,,,0.01,weatherlink.com 1.10,2013-09-03 00:54:00,
2013-09-02 21:09:00,68.5,61.0,29.74,WSW,250,8.0,-999.0,77,-99.99,,,0.01,weatherlink.com 1.10,2013-09-03 01:09:00,
2013-09-02 21:24:00,68.1,61.0,29.75,SW,223,0.0,-999.0,77,-99.99,,,0.01,weatherlink.com 1.10,2013-09-03 01:24:00,
2013-09-02 21:40:00,67.7,60.0,29.75,SSE,168,0.0,-999.0,77,-99.99,,,0.01,weatherlink.com 1.10,2013-09-03 01:40:00,
2013-09-02 21:55:00,67.3,60.0,29.76,SW,221,0.0,-999.0,78,-99.99,,,0.01,weatherlink.com 1.10,2013-09-03 01:55:00,
2013-09-02 22:10:00,67.1,60.0,29.76,SW,223,0.0,-999.0,78,-99.99,,,0.01,weatherlink.com 1.10,2013-09-03 02:10:00,
2013-09-02 22:25:00,66.4,60.0,29.76,SSW,212,0.0,-999.0,79,-99.99,,,0.01,weatherlink.com 1.10,2013-09-03 02:25:00,
2013-09-02 22:40:00,66.1,59.0,29.77,SW,223,2.0,-999.0,78,-99.99,,,0.01,weatherlink.com 1.10,2013-09-03 02:40:00,
2013-09-02 22:55:00,66.0,59.0,29.77,SW,215,0.0,-999.0,77,-99.99,,,0.01,weatherlink.com 1.10,2013-09-03 02:55:00,
2013-09-02 23:10:00,65.4,58.0,29.77,SSW,204,0.0,-999.0,78,-99.99,,,0.01,weatherlink.com 1.10,2013-09-03 03:10:00,
2013-09-02 23:25:00,64.9,59.0,29.77,WSW,242,0.0,-999.0,80,-99.99,,,0.01,weatherlink.com 1.10,2013-09-03 03:25:00,
2013-09-02 23:40:00,65.1,58.0,29.78,SSW,213,4.0,-999.0,79,-99.99,,,0.01,weatherlink.com 1.10,2013-09-03 03:40:00,
2013-09-02 23:55:00,65.3,59.0,29.78,South,184,1.0,-999.0,79,-99.99,,,0.01,weatherlink.com 1.10,2013-09-03 03:55:00,